createdAt,value
2023-01-12T00:01:46.288Z,9.63
2023-01-12T00:04:17.212Z,8.90
2023-01-12T00:06:51.037Z,9.02
2023-01-12T00:09:19.850Z,10.27
2023-01-12T00:11:50.449Z,9.52
2023-01-12T00:14:18.165Z,9.25
2023-01-12T00:16:48.377Z,9.05
2023-01-12T00:19:18.969Z,9.48
2023-01-12T00:21:56.569Z,9.63
2023-01-12T00:24:31.963Z,8.80
2023-01-12T00:27:01.320Z,8.63
2023-01-12T00:29:32.397Z,9.70
2023-01-12T00:32:09.445Z,9.43
2023-01-12T00:34:37.045Z,10.38
2023-01-12T00:37:05.254Z,8.88
2023-01-12T00:39:40.737Z,9.10
2023-01-12T00:42:31.174Z,9.13
2023-01-12T00:45:20.124Z,9.38
2023-01-12T00:47:47.824Z,10.15
2023-01-12T00:50:24.902Z,9.35
2023-01-12T00:52:52.599Z,9.15
2023-01-12T00:55:27.079Z,8.82
2023-01-12T00:57:55.018Z,9.68
2023-01-12T01:00:23.620Z,8.68
2023-01-12T01:02:53.700Z,8.27
2023-01-12T01:05:24.202Z,8.25
2023-01-12T01:07:51.667Z,8.85
2023-01-12T01:10:19.288Z,9.75
2023-01-12T01:12:47.100Z,8.88
2023-01-12T01:15:17.608Z,8.70
2023-01-12T01:17:47.981Z,8.30
2023-01-12T01:20:15.509Z,8.10
2023-01-12T01:22:43.166Z,9.02
2023-01-12T01:25:10.873Z,9.38
2023-01-12T01:27:41.475Z,8.77
2023-01-12T01:30:09.646Z,8.57
2023-01-12T01:32:37.042Z,8.48
2023-01-12T01:35:07.223Z,8.70
2023-01-12T01:37:34.807Z,8.93
2023-01-12T01:40:02.407Z,8.82
2023-01-12T01:42:30.050Z,9.05
2023-01-12T01:45:00.160Z,8.50
2023-01-12T01:47:39.843Z,8.30
2023-01-12T01:50:35.773Z,8.82
2023-01-12T01:53:08.874Z,8.43
2023-01-12T01:55:51.425Z,8.73
2023-01-12T01:58:32.385Z,8.88
2023-01-12T02:01:03.042Z,8.98
2023-01-12T02:03:39.113Z,7.90
2023-01-12T02:06:08.752Z,9.52
2023-01-12T02:08:47.458Z,8.38
2023-01-12T02:11:34.468Z,8.43
2023-01-12T02:14:20.470Z,8.13
2023-01-12T02:16:53.931Z,7.85
2023-01-12T02:19:43.233Z,8.45
2023-01-12T02:22:29.174Z,8.52
2023-01-12T02:25:27.888Z,8.15
2023-01-12T02:28:13.209Z,9.07
2023-01-12T02:30:59.476Z,8.52
2023-01-12T02:33:59.858Z,7.45
2023-01-12T02:36:38.844Z,8.80
2023-01-12T02:39:26.730Z,8.57
2023-01-12T02:42:22.068Z,8.45
2023-01-12T02:45:11.402Z,8.10
2023-01-12T02:48:00.414Z,8.48
2023-01-12T02:50:49.119Z,7.35
2023-01-12T02:53:28.011Z,7.38
2023-01-12T02:55:59.214Z,8.82
2023-01-12T02:58:32.489Z,8.32
2023-01-12T03:01:07.461Z,7.70
2023-01-12T03:03:39.641Z,8.18
2023-01-12T03:06:19.189Z,8.57
2023-01-12T03:08:49.992Z,7.25
2023-01-12T03:14:00.010Z,6.43
2023-01-12T03:16:36.033Z,7.75
2023-01-12T03:19:28.078Z,9.07
2023-01-12T03:22:01.987Z,7.05
2023-01-12T03:24:37.938Z,7.25
2023-01-12T03:27:19.832Z,7.15
2023-01-12T03:30:10.845Z,7.20
2023-01-12T03:32:44.959Z,7.28
2023-01-12T03:35:17.405Z,7.60
2023-01-12T03:38:02.612Z,6.63
2023-01-12T03:40:39.512Z,8.60
2023-01-12T03:43:16.051Z,6.93
2023-01-12T03:46:01.135Z,7.38
2023-01-12T03:48:36.266Z,8.32
2023-01-12T03:51:17.971Z,7.72
2023-01-12T03:53:51.795Z,6.72
2023-01-12T03:56:25.054Z,7.57
2023-01-12T03:58:53.281Z,7.43
2023-01-12T04:01:26.795Z,6.25
2023-01-12T04:03:54.370Z,8.50
2023-01-12T04:06:28.109Z,7.30
2023-01-12T04:11:41.857Z,7.57
2023-01-12T04:14:13.622Z,6.57
2023-01-12T04:16:41.447Z,6.78
2023-01-12T04:19:09.092Z,6.93
2023-01-12T04:21:55.175Z,7.80
2023-01-12T04:24:22.805Z,7.93
2023-01-12T04:26:50.281Z,6.35
2023-01-12T04:29:20.921Z,7.28
2023-01-12T04:31:51.457Z,6.97
2023-01-12T04:34:21.615Z,6.53
2023-01-12T04:36:49.696Z,6.93
2023-01-12T04:39:20.336Z,7.75
2023-01-12T04:41:48.204Z,6.88
2023-01-12T04:44:22.062Z,8.45
2023-01-12T04:46:56.630Z,6.45
2023-01-12T04:49:26.223Z,6.57
2023-01-12T04:51:53.852Z,5.85
2023-01-12T04:54:24.307Z,6.07
2023-01-12T04:56:54.169Z,7.30
2023-01-12T04:59:21.723Z,6.53
2023-01-12T05:01:57.473Z,7.05
2023-01-12T05:04:32.358Z,7.50
2023-01-12T05:07:07.862Z,7.72
2023-01-12T05:09:54.254Z,6.75
2023-01-12T05:12:24.560Z,7.90
2023-01-12T05:14:55.808Z,6.65
2023-01-12T05:17:23.064Z,6.18
2023-01-12T05:19:53.626Z,6.80
2023-01-12T05:22:24.245Z,6.18
2023-01-12T05:24:57.586Z,6.35
2023-01-12T05:27:25.215Z,6.47
2023-01-12T05:29:59.638Z,5.15
2023-01-12T05:32:27.371Z,7.32
2023-01-12T05:34:54.888Z,7.82
2023-01-12T05:37:22.627Z,5.93
2023-01-12T05:39:57.168Z,6.43
2023-01-12T05:42:43.831Z,8.20
2023-01-12T05:45:14.278Z,6.30
2023-01-12T05:47:42.520Z,6.07
2023-01-12T05:50:16.389Z,6.13
2023-01-12T05:52:52.704Z,7.55
2023-01-12T05:55:23.273Z,6.07
2023-01-12T05:57:53.197Z,6.13
2023-01-12T06:00:21.075Z,5.53
2023-01-12T06:02:50.945Z,5.28
2023-01-12T06:05:23.708Z,6.60
2023-01-12T06:07:54.279Z,6.20
2023-01-12T06:10:24.796Z,6.15
2023-01-12T06:13:11.806Z,5.63
2023-01-12T06:15:39.868Z,6.60
2023-01-12T06:18:10.310Z,7.10
2023-01-12T06:20:37.845Z,5.80
2023-01-12T06:23:10.870Z,6.72
2023-01-12T06:25:40.938Z,6.40
2023-01-12T06:28:13.861Z,7.05
2023-01-12T06:30:42.207Z,6.90
2023-01-12T06:33:09.465Z,5.40
2023-01-12T06:35:39.562Z,6.03
2023-01-12T06:38:10.002Z,5.68
2023-01-12T06:40:40.277Z,7.57
2023-01-12T06:43:10.858Z,6.38
2023-01-12T06:45:44.379Z,5.85
2023-01-12T06:48:15.030Z,6.60
2023-01-12T06:50:45.454Z,5.95
2023-01-12T06:53:15.036Z,6.28
2023-01-12T06:55:49.507Z,6.22
2023-01-12T06:58:18.618Z,6.30
2023-01-12T07:00:51.418Z,6.88
2023-01-12T07:03:27.144Z,6.43
2023-01-12T07:05:56.745Z,6.72
2023-01-12T07:08:28.633Z,5.72
2023-01-12T07:11:01.099Z,5.82
2023-01-12T07:13:31.834Z,6.57
2023-01-12T07:16:00.174Z,5.75
2023-01-12T07:18:33.631Z,6.53
2023-01-12T07:21:05.343Z,6.10
2023-01-12T07:23:42.350Z,5.38
2023-01-12T07:26:13.288Z,5.78
2023-01-12T07:28:43.473Z,6.45
2023-01-12T07:31:19.600Z,7.53
2023-01-12T07:34:02.901Z,6.03
2023-01-12T07:36:36.463Z,5.28
2023-01-12T07:39:04.682Z,7.30
2023-01-12T07:41:56.880Z,5.43
2023-01-12T07:44:33.083Z,6.57
2023-01-12T07:47:06.418Z,6.30
2023-01-12T07:49:51.037Z,5.45
2023-01-12T07:52:25.979Z,6.47
2023-01-12T07:54:57.080Z,6.47
2023-01-12T07:57:29.900Z,6.05
2023-01-12T08:00:06.141Z,6.40
2023-01-12T08:02:40.814Z,6.50
2023-01-12T08:05:14.760Z,6.30
2023-01-12T08:07:42.779Z,6.82
2023-01-12T08:10:18.243Z,5.57
2023-01-12T08:12:53.834Z,5.68
2023-01-12T08:15:33.727Z,4.47
2023-01-12T08:18:09.239Z,6.55
2023-01-12T08:20:46.833Z,6.50
2023-01-12T08:23:22.571Z,5.13
2023-01-12T08:25:56.937Z,6.22
2023-01-12T08:28:32.215Z,5.55
2023-01-12T08:31:10.616Z,6.78
2023-01-12T08:33:49.583Z,4.88
2023-01-12T08:36:21.295Z,6.65
2023-01-12T08:38:51.840Z,6.35
2023-01-12T08:41:34.802Z,6.68
2023-01-12T08:44:13.512Z,6.47
2023-01-12T08:46:55.481Z,5.93
2023-01-12T08:49:28.247Z,6.40
2023-01-12T08:52:03.280Z,7.10
2023-01-12T08:54:40.008Z,6.85
2023-01-12T08:57:10.774Z,7.93
2023-01-12T08:59:41.294Z,9.70
2023-01-12T09:02:21.313Z,6.00
2023-01-12T09:05:01.417Z,6.20
2023-01-12T09:07:43.069Z,5.90
2023-01-12T09:10:21.159Z,7.78
2023-01-12T09:12:56.455Z,6.65
2023-01-12T09:15:30.163Z,5.97
2023-01-12T09:18:05.666Z,6.85
2023-01-12T09:20:51.160Z,5.80
2023-01-12T09:23:24.280Z,6.90
2023-01-12T09:25:55.773Z,7.43
2023-01-12T09:28:28.858Z,7.20
2023-01-12T09:31:23.626Z,6.20
2023-01-12T09:33:57.880Z,6.97
2023-01-12T09:36:44.837Z,6.43
2023-01-12T09:39:27.787Z,6.38
2023-01-12T09:42:26.979Z,7.80
2023-01-12T09:45:19.295Z,6.38
2023-01-12T09:47:56.487Z,7.00
2023-01-12T09:50:35.527Z,7.28
2023-01-12T09:53:15.464Z,7.28
2023-01-12T09:56:04.467Z,7.35
2023-01-12T09:59:07.892Z,7.82
2023-01-12T10:01:46.798Z,5.73
2023-01-12T10:04:15.352Z,6.63
2023-01-12T10:06:48.732Z,8.10
2023-01-12T10:09:21.014Z,8.38
2023-01-12T10:12:00.673Z,6.85
2023-01-12T10:14:37.392Z,7.00
2023-01-12T10:17:20.006Z,6.95
2023-01-12T10:20:03.338Z,7.22
2023-01-12T10:22:47.929Z,6.88
2023-01-12T10:25:39.130Z,8.40
2023-01-12T10:28:34.656Z,7.47
2023-01-12T10:31:05.635Z,7.05
2023-01-12T10:33:45.566Z,8.52
2023-01-12T10:36:24.830Z,7.65
2023-01-12T10:39:00.789Z,7.20
2023-01-12T10:41:40.414Z,6.90
2023-01-12T10:44:21.116Z,7.07
2023-01-12T10:47:16.823Z,7.05
2023-01-12T10:50:32.910Z,7.43
2023-01-12T10:53:20.647Z,8.82
2023-01-12T10:55:58.964Z,7.97
2023-01-12T10:58:33.970Z,7.90
2023-01-12T11:01:14.965Z,6.82
2023-01-12T11:03:53.719Z,8.18
2023-01-12T11:06:38.285Z,8.25
2023-01-12T11:09:24.168Z,7.45
2023-01-12T11:12:02.990Z,7.25
2023-01-12T11:14:38.286Z,7.60
2023-01-12T11:17:51.583Z,6.65
2023-01-12T11:20:39.747Z,7.63
2023-01-12T11:23:36.963Z,8.98
2023-01-12T11:26:31.525Z,9.20
2023-01-12T11:29:31.966Z,7.18
2023-01-12T11:32:16.883Z,7.30
2023-01-12T11:35:20.655Z,8.55
2023-01-12T11:37:54.110Z,7.35
2023-01-12T11:43:46.883Z,7.93
2023-01-12T11:46:27.955Z,8.38
2023-01-12T11:49:02.458Z,9.05
2023-01-12T11:51:33.198Z,7.78
2023-01-12T11:54:07.436Z,7.65
2023-01-12T11:57:01.606Z,8.27
2023-01-12T11:59:48.010Z,7.72
2023-01-12T12:02:24.877Z,8.68
2023-01-12T12:05:19.916Z,7.90
2023-01-12T12:08:11.925Z,9.77
2023-01-12T12:11:15.153Z,7.45
2023-01-12T12:13:43.144Z,7.57
2023-01-12T12:16:23.052Z,7.32
2023-01-12T12:19:15.079Z,8.20
2023-01-12T12:21:56.367Z,8.05
2023-01-12T12:24:32.012Z,8.75
2023-01-12T12:27:13.144Z,7.78
2023-01-12T12:30:05.688Z,8.45
2023-01-12T12:32:57.970Z,6.80
2023-01-12T12:35:49.839Z,7.22
2023-01-12T12:39:05.441Z,8.02
2023-01-12T12:42:04.701Z,9.55
2023-01-12T12:45:09.678Z,9.52
2023-01-12T12:47:53.000Z,8.05
2023-01-12T12:50:44.742Z,7.72
2023-01-12T12:53:35.689Z,8.30
2023-01-12T12:56:16.090Z,9.65
2023-01-12T12:58:50.011Z,7.85
2023-01-12T13:01:23.477Z,7.60
2023-01-12T13:04:05.428Z,9.25
2023-01-12T13:06:47.299Z,7.90
2023-01-12T13:09:21.055Z,8.68
2023-01-12T13:12:19.171Z,7.60
2023-01-12T13:15:25.211Z,7.85
2023-01-12T13:18:00.775Z,7.25
2023-01-12T13:20:50.921Z,7.60
2023-01-12T13:23:50.657Z,7.63
2023-01-12T13:26:39.789Z,6.65
2023-01-12T13:29:28.861Z,8.95
2023-01-12T13:32:31.568Z,7.28
2023-01-12T13:35:23.143Z,8.55
2023-01-12T13:38:28.929Z,8.63
2023-01-12T13:41:46.402Z,8.80
2023-01-12T13:44:46.452Z,7.07
2023-01-12T13:47:33.535Z,8.45
2023-01-12T13:50:05.240Z,7.70
2023-01-12T13:52:40.404Z,8.35
2023-01-12T13:55:27.739Z,7.22
2023-01-12T13:58:17.478Z,8.00
2023-01-12T14:00:58.739Z,7.55
2023-01-12T14:04:02.379Z,8.82
2023-01-12T14:06:51.323Z,7.07
2023-01-12T14:09:23.110Z,8.15
2023-01-12T14:11:59.781Z,8.75
2023-01-12T14:15:34.749Z,7.88
2023-01-12T14:18:27.447Z,7.35
2023-01-12T14:21:04.575Z,7.43
2023-01-12T14:23:46.632Z,8.35
2023-01-12T14:26:27.384Z,8.77
2023-01-12T14:29:03.872Z,7.13
2023-01-12T14:34:41.911Z,7.72
2023-01-12T14:37:36.996Z,9.65
2023-01-12T14:40:21.741Z,7.93
2023-01-12T14:43:11.341Z,8.45
2023-01-12T14:46:15.172Z,9.57
2023-01-12T14:48:43.997Z,8.05
2023-01-12T14:51:24.347Z,7.20
2023-01-12T14:53:59.063Z,9.02
2023-01-12T14:56:56.892Z,9.00
2023-01-12T14:59:48.705Z,7.80
2023-01-12T15:02:28.265Z,8.38
2023-01-12T15:05:08.148Z,13.30
2023-01-12T15:07:52.225Z,7.43
2023-01-12T15:10:23.455Z,8.30
2023-01-12T15:12:56.495Z,8.70
2023-01-12T15:15:50.254Z,8.57
2023-01-12T15:18:36.349Z,8.55
2023-01-12T15:21:30.992Z,6.82
2023-01-12T15:24:20.484Z,8.25
2023-01-12T15:27:06.008Z,7.93
2023-01-12T15:29:40.984Z,8.23
2023-01-12T15:32:47.473Z,7.40
2023-01-12T15:35:26.610Z,9.60
2023-01-12T15:38:00.006Z,8.50
2023-01-12T15:40:34.453Z,10.35
2023-01-12T15:43:12.834Z,7.95
2023-01-12T15:45:45.831Z,8.50
2023-01-12T15:48:17.177Z,7.65
2023-01-12T15:50:51.476Z,9.27
2023-01-12T15:53:28.222Z,7.40
2023-01-12T15:56:00.169Z,8.63
2023-01-12T15:58:35.019Z,8.85
2023-01-12T16:01:10.749Z,11.25
2023-01-12T16:04:09.557Z,7.50
2023-01-12T16:06:48.677Z,8.05
2023-01-12T16:09:30.939Z,7.15
2023-01-12T16:12:07.429Z,7.55
2023-01-12T16:14:49.946Z,10.60
2023-01-12T16:17:28.434Z,7.78
2023-01-12T16:20:01.771Z,7.40
2023-01-12T16:22:39.167Z,11.13
2023-01-12T16:25:13.247Z,10.18
2023-01-12T16:27:47.887Z,9.30
2023-01-12T16:30:25.998Z,10.70
2023-01-12T16:33:00.296Z,8.93
2023-01-12T16:35:34.182Z,7.80
2023-01-12T16:38:06.067Z,7.90
2023-01-12T16:40:40.838Z,8.60
2023-01-12T16:43:21.000Z,8.80
2023-01-12T16:45:57.244Z,9.32
2023-01-12T16:48:31.869Z,8.25
2023-01-12T16:51:00.964Z,8.95
2023-01-12T16:53:33.681Z,8.25
2023-01-12T16:56:04.299Z,10.20
2023-01-12T16:58:33.441Z,9.32
2023-01-12T17:01:02.099Z,9.45
2023-01-12T17:03:34.817Z,9.00
2023-01-12T17:06:08.221Z,10.13
2023-01-12T17:08:38.969Z,9.25
2023-01-12T17:11:20.942Z,8.63
2023-01-12T17:13:55.754Z,9.32
2023-01-12T17:16:28.279Z,8.88
2023-01-12T17:19:02.249Z,10.25
2023-01-12T17:21:39.093Z,8.95
2023-01-12T17:24:12.266Z,8.35
2023-01-12T17:26:46.959Z,9.18
2023-01-12T17:29:22.260Z,9.80
2023-01-12T17:32:05.091Z,9.57
2023-01-12T17:34:43.886Z,9.35
2023-01-12T17:37:15.309Z,9.35
2023-01-12T17:39:48.446Z,9.70
2023-01-12T17:42:36.166Z,9.55
2023-01-12T17:45:15.074Z,10.52
2023-01-12T17:47:45.061Z,9.50
2023-01-12T17:50:19.581Z,9.25
2023-01-12T17:52:51.829Z,9.98
2023-01-12T17:55:20.635Z,10.18
2023-01-12T17:57:56.166Z,9.93
2023-01-12T18:00:30.641Z,9.93
2023-01-12T18:03:03.685Z,9.60
2023-01-12T18:05:35.965Z,8.90
2023-01-12T18:08:09.533Z,9.45
2023-01-12T18:10:42.414Z,10.38
2023-01-12T18:13:13.564Z,10.07
2023-01-12T18:15:49.165Z,9.73
2023-01-12T18:18:21.508Z,10.70
2023-01-12T18:20:52.641Z,9.65
2023-01-12T18:23:23.464Z,9.40
2023-01-12T18:25:54.355Z,10.00
2023-01-12T18:28:24.768Z,10.38
2023-01-12T18:31:04.194Z,11.60
2023-01-12T18:33:43.527Z,9.88
2023-01-12T18:36:26.796Z,11.35
2023-01-12T18:39:04.828Z,9.00
2023-01-12T18:41:56.733Z,9.40
2023-01-12T18:44:31.459Z,9.70
2023-01-12T18:47:23.755Z,9.60
2023-01-12T18:50:22.422Z,9.65
2023-01-12T18:53:13.295Z,9.57
2023-01-12T18:55:52.306Z,9.15
2023-01-12T18:58:29.895Z,8.95
2023-01-12T19:01:11.664Z,9.52
2023-01-12T19:03:42.540Z,9.63
2023-01-12T19:06:23.686Z,9.93
2023-01-12T19:09:13.673Z,9.45
2023-01-12T19:11:47.123Z,10.48
2023-01-12T19:14:40.514Z,9.90
2023-01-12T19:17:26.842Z,11.18
2023-01-12T19:20:02.310Z,9.82
2023-01-12T19:22:53.840Z,9.88
2023-01-12T19:25:42.307Z,9.88
2023-01-12T19:28:35.587Z,9.85
2023-01-12T19:31:11.084Z,9.27
2023-01-12T19:33:45.328Z,9.13
2023-01-12T19:36:24.410Z,10.15
2023-01-12T19:39:00.360Z,9.75
2023-01-12T19:41:51.121Z,10.00
2023-01-12T19:44:24.402Z,10.88
2023-01-12T19:46:51.896Z,8.63
2023-01-12T19:49:19.439Z,9.35
2023-01-12T19:51:51.144Z,9.52
2023-01-12T19:54:23.850Z,9.68
2023-01-12T19:56:51.478Z,9.83
2023-01-12T19:59:25.521Z,11.07
2023-01-12T20:01:58.110Z,10.68
2023-01-12T20:04:30.366Z,10.73
2023-01-12T20:07:03.848Z,9.68
2023-01-12T20:09:37.573Z,10.63
2023-01-12T20:12:11.185Z,12.68
2023-01-12T20:14:50.270Z,10.27
2023-01-12T20:17:25.688Z,10.45
2023-01-12T20:19:59.407Z,9.68
2023-01-12T20:22:35.492Z,10.35
2023-01-12T20:25:07.160Z,11.43
2023-01-12T20:27:43.189Z,9.73
2023-01-12T20:30:31.887Z,12.07
2023-01-12T20:33:11.614Z,9.43
2023-01-12T20:35:49.799Z,10.20
2023-01-12T20:38:22.649Z,9.00
2023-01-12T20:40:55.457Z,9.70
2023-01-12T20:43:25.336Z,9.23
2023-01-12T20:45:58.122Z,9.48
2023-01-12T20:48:34.176Z,9.05
2023-01-12T20:51:13.882Z,11.13
2023-01-12T20:53:49.650Z,10.75
2023-01-12T20:56:21.977Z,8.95
2023-01-12T20:58:55.177Z,10.18
2023-01-12T21:01:30.912Z,9.68
2023-01-12T21:04:04.020Z,10.18
2023-01-12T21:06:37.461Z,10.10
2023-01-12T21:11:46.998Z,10.02
2023-01-12T21:14:23.814Z,10.60
2023-01-12T21:16:57.707Z,8.80
2023-01-12T21:19:27.675Z,9.30
2023-01-12T21:21:58.123Z,9.27
2023-01-12T21:24:32.336Z,10.25
2023-01-12T21:27:05.072Z,10.20
2023-01-12T21:29:38.432Z,11.45
2023-01-12T21:32:15.747Z,9.75
2023-01-12T21:34:51.355Z,8.82
2023-01-12T21:37:23.838Z,10.45
2023-01-12T21:39:57.185Z,10.32
2023-01-12T21:42:47.035Z,9.68
2023-01-12T21:45:23.857Z,10.15
2023-01-12T21:47:54.426Z,9.90
2023-01-12T21:50:25.577Z,10.20
2023-01-12T21:52:57.917Z,10.40
2023-01-12T21:55:35.506Z,11.18
2023-01-12T21:58:05.448Z,10.15
2023-01-12T22:00:35.958Z,10.18
2023-01-12T22:03:08.249Z,9.82
2023-01-12T22:05:49.595Z,8.95
2023-01-12T22:08:24.687Z,10.93
2023-01-12T22:11:12.110Z,10.20
2023-01-12T22:13:45.309Z,9.55
2023-01-12T22:16:17.038Z,10.20
2023-01-12T22:18:49.200Z,10.02
2023-01-12T22:21:19.885Z,9.80
2023-01-12T22:23:53.621Z,10.30
2023-01-12T22:26:24.070Z,11.18
2023-01-12T22:28:59.974Z,10.50
2023-01-12T22:31:38.371Z,10.57
2023-01-12T22:34:08.676Z,10.48
2023-01-12T22:36:44.736Z,9.80
2023-01-12T22:39:20.510Z,9.65
2023-01-12T22:41:55.913Z,10.00
2023-01-12T22:44:31.398Z,10.18
2023-01-12T22:47:06.858Z,9.65
2023-01-12T22:49:43.467Z,9.57
2023-01-12T22:52:13.332Z,10.70
2023-01-12T22:54:46.517Z,10.60
2023-01-12T22:57:19.208Z,12.43
2023-01-12T22:59:51.842Z,10.37
2023-01-12T23:02:48.909Z,11.10
2023-01-12T23:05:24.125Z,10.82
2023-01-12T23:07:55.091Z,11.55
2023-01-12T23:10:30.596Z,9.65
2023-01-12T23:13:17.736Z,10.02
2023-01-12T23:15:56.608Z,10.02
2023-01-12T23:18:34.344Z,10.43
2023-01-12T23:21:18.424Z,11.57
2023-01-12T23:23:50.939Z,9.70
2023-01-12T23:26:24.664Z,11.45
2023-01-12T23:29:02.881Z,9.90
2023-01-12T23:31:35.391Z,10.45
2023-01-12T23:34:13.610Z,9.88
2023-01-12T23:36:49.660Z,9.95
2023-01-12T23:39:27.788Z,10.40
2023-01-12T23:42:03.193Z,10.77
2023-01-12T23:44:40.810Z,11.07
2023-01-12T23:47:15.821Z,10.45
2023-01-12T23:49:51.731Z,10.52
2023-01-12T23:52:27.516Z,10.00
2023-01-12T23:55:03.625Z,12.40
2023-01-12T23:57:46.037Z,10.70
